sensor_id;sensor_type;location;lat;lon;timestamp;P1;durP1;ratioP1;P2;durP2;ratioP2
48881;SDS011;57063;51.406;-2.402;2022-08-02T00:00:18;3.22;;;1.10;;
48881;SDS011;57063;51.406;-2.402;2022-08-02T00:02:45;2.85;;;1.50;;
48881;SDS011;57063;51.406;-2.402;2022-08-02T00:05:11;1.60;;;1.15;;
48881;SDS011;57063;51.406;-2.402;2022-08-02T00:07:37;5.88;;;1.15;;
48881;SDS011;57063;51.406;-2.402;2022-08-02T00:10:04;2.70;;;1.20;;
48881;SDS011;57063;51.406;-2.402;2022-08-02T00:12:30;2.33;;;0.95;;
48881;SDS011;57063;51.406;-2.402;2022-08-02T00:14:56;5.50;;;1.20;;
48881;SDS011;57063;51.406;-2.402;2022-08-02T00:17:21;4.82;;;1.52;;
48881;SDS011;57063;51.406;-2.402;2022-08-02T00:19:46;4.55;;;1.10;;
48881;SDS011;57063;51.406;-2.402;2022-08-02T00:22:12;2.97;;;1.27;;
48881;SDS011;57063;51.406;-2.402;2022-08-02T00:24:37;2.03;;;0.95;;
48881;SDS011;57063;51.406;-2.402;2022-08-02T00:27:03;2.88;;;1.52;;
48881;SDS011;57063;51.406;-2.402;2022-08-02T00:29:29;1.65;;;1.25;;
48881;SDS011;57063;51.406;-2.402;2022-08-02T00:31:55;1.67;;;1.13;;
48881;SDS011;57063;51.406;-2.402;2022-08-02T00:34:21;3.25;;;1.33;;
48881;SDS011;57063;51.406;-2.402;2022-08-02T00:36:46;1.83;;;1.13;;
48881;SDS011;57063;51.406;-2.402;2022-08-02T00:39:11;3.08;;;1.50;;
48881;SDS011;57063;51.406;-2.402;2022-08-02T00:41:43;8.90;;;1.73;;
48881;SDS011;57063;51.406;-2.402;2022-08-02T00:44:15;3.40;;;1.33;;
48881;SDS011;57063;51.406;-2.402;2022-08-02T00:46:42;2.17;;;1.23;;
48881;SDS011;57063;51.406;-2.402;2022-08-02T00:49:07;2.83;;;1.90;;
48881;SDS011;57063;51.406;-2.402;2022-08-02T00:51:33;3.50;;;1.80;;
48881;SDS011;57063;51.406;-2.402;2022-08-02T00:53:58;5.47;;;1.40;;
48881;SDS011;57063;51.406;-2.402;2022-08-02T00:56:24;7.82;;;2.72;;
48881;SDS011;57063;51.406;-2.402;2022-08-02T00:58:49;2.35;;;1.60;;
48881;SDS011;57063;51.406;-2.402;2022-08-02T01:01:14;3.45;;;1.50;;
48881;SDS011;57063;51.406;-2.402;2022-08-02T01:03:40;4.72;;;1.75;;
48881;SDS011;57063;51.406;-2.402;2022-08-02T01:06:05;3.70;;;1.95;;
48881;SDS011;57063;51.406;-2.402;2022-08-02T01:08:31;3.78;;;1.33;;
48881;SDS011;57063;51.406;-2.402;2022-08-02T01:10:57;4.22;;;1.30;;
48881;SDS011;57063;51.406;-2.402;2022-08-02T01:13:22;5.32;;;1.67;;
48881;SDS011;57063;51.406;-2.402;2022-08-02T01:15:51;3.03;;;1.60;;
48881;SDS011;57063;51.406;-2.402;2022-08-02T01:18:26;2.50;;;1.60;;
48881;SDS011;57063;51.406;-2.402;2022-08-02T01:27:07;4.07;;;1.60;;
48881;SDS011;57063;51.406;-2.402;2022-08-02T01:29:44;2.97;;;1.40;;
48881;SDS011;57063;51.406;-2.402;2022-08-02T01:32:18;3.30;;;1.45;;
48881;SDS011;57063;51.406;-2.402;2022-08-02T01:34:51;2.40;;;1.50;;
48881;SDS011;57063;51.406;-2.402;2022-08-02T01:37:23;3.75;;;1.65;;
48881;SDS011;57063;51.406;-2.402;2022-08-02T01:39:54;2.55;;;1.48;;
48881;SDS011;57063;51.406;-2.402;2022-08-02T01:42:23;3.80;;;1.75;;
48881;SDS011;57063;51.406;-2.402;2022-08-02T01:44:51;2.65;;;1.60;;
48881;SDS011;57063;51.406;-2.402;2022-08-02T01:47:21;7.70;;;1.80;;
48881;SDS011;57063;51.406;-2.402;2022-08-02T01:49:53;2.25;;;1.20;;
48881;SDS011;57063;51.406;-2.402;2022-08-02T01:52:20;4.60;;;1.67;;
48881;SDS011;57063;51.406;-2.402;2022-08-02T01:54:55;2.78;;;1.05;;
48881;SDS011;57063;51.406;-2.402;2022-08-02T01:57:25;2.80;;;1.63;;
48881;SDS011;57063;51.406;-2.402;2022-08-02T01:59:53;3.58;;;1.70;;
48881;SDS011;57063;51.406;-2.402;2022-08-02T02:02:21;2.42;;;1.52;;
48881;SDS011;57063;51.406;-2.402;2022-08-02T02:04:48;5.45;;;1.90;;
48881;SDS011;57063;51.406;-2.402;2022-08-02T02:07:16;3.42;;;1.73;;
48881;SDS011;57063;51.406;-2.402;2022-08-02T02:09:44;2.78;;;1.70;;
48881;SDS011;57063;51.406;-2.402;2022-08-02T02:12:11;4.45;;;1.90;;
48881;SDS011;57063;51.406;-2.402;2022-08-02T02:14:38;4.25;;;1.80;;
48881;SDS011;57063;51.406;-2.402;2022-08-02T02:17:05;4.57;;;1.60;;
48881;SDS011;57063;51.406;-2.402;2022-08-02T02:19:32;4.70;;;1.75;;
48881;SDS011;57063;51.406;-2.402;2022-08-02T02:22:00;2.35;;;1.80;;
48881;SDS011;57063;51.406;-2.402;2022-08-02T02:24:26;3.58;;;1.85;;
48881;SDS011;57063;51.406;-2.402;2022-08-02T02:26:51;7.28;;;1.95;;
48881;SDS011;57063;51.406;-2.402;2022-08-02T02:29:17;3.08;;;1.70;;
48881;SDS011;57063;51.406;-2.402;2022-08-02T02:31:45;5.20;;;1.40;;
48881;SDS011;57063;51.406;-2.402;2022-08-02T02:34:13;4.60;;;1.55;;
48881;SDS011;57063;51.406;-2.402;2022-08-02T02:36:44;2.05;;;1.45;;
48881;SDS011;57063;51.406;-2.402;2022-08-02T02:39:12;3.80;;;1.83;;
48881;SDS011;57063;51.406;-2.402;2022-08-02T02:41:40;3.55;;;1.63;;
48881;SDS011;57063;51.406;-2.402;2022-08-02T02:44:08;4.60;;;1.30;;
48881;SDS011;57063;51.406;-2.402;2022-08-02T02:46:37;4.97;;;1.88;;
48881;SDS011;57063;51.406;-2.402;2022-08-02T02:49:04;4.50;;;1.92;;
48881;SDS011;57063;51.406;-2.402;2022-08-02T02:51:31;6.15;;;1.98;;
48881;SDS011;57063;51.406;-2.402;2022-08-02T02:53:57;6.57;;;2.13;;
48881;SDS011;57063;51.406;-2.402;2022-08-02T02:56:23;5.65;;;1.80;;
48881;SDS011;57063;51.406;-2.402;2022-08-02T02:58:49;6.65;;;1.67;;
48881;SDS011;57063;51.406;-2.402;2022-08-02T03:01:16;4.85;;;2.03;;
48881;SDS011;57063;51.406;-2.402;2022-08-02T03:03:59;6.63;;;2.95;;
48881;SDS011;57063;51.406;-2.402;2022-08-02T03:06:27;5.70;;;1.63;;
48881;SDS011;57063;51.406;-2.402;2022-08-02T03:08:54;5.75;;;1.90;;
48881;SDS011;57063;51.406;-2.402;2022-08-02T03:11:20;3.22;;;2.15;;
48881;SDS011;57063;51.406;-2.402;2022-08-02T03:13:46;6.93;;;1.67;;
48881;SDS011;57063;51.406;-2.402;2022-08-02T03:16:12;6.60;;;2.00;;
48881;SDS011;57063;51.406;-2.402;2022-08-02T03:18:39;4.38;;;2.47;;
48881;SDS011;57063;51.406;-2.402;2022-08-02T03:21:12;6.13;;;2.35;;
48881;SDS011;57063;51.406;-2.402;2022-08-02T03:23:38;10.63;;;2.38;;
48881;SDS011;57063;51.406;-2.402;2022-08-02T03:26:06;5.88;;;1.90;;
48881;SDS011;57063;51.406;-2.402;2022-08-02T03:28:33;7.43;;;1.77;;
48881;SDS011;57063;51.406;-2.402;2022-08-02T03:30:59;6.57;;;2.15;;
48881;SDS011;57063;51.406;-2.402;2022-08-02T03:33:25;4.28;;;2.42;;
48881;SDS011;57063;51.406;-2.402;2022-08-02T03:35:52;5.35;;;1.73;;
48881;SDS011;57063;51.406;-2.402;2022-08-02T03:38:19;5.97;;;2.20;;
48881;SDS011;57063;51.406;-2.402;2022-08-02T03:40:46;6.35;;;2.17;;
48881;SDS011;57063;51.406;-2.402;2022-08-02T03:43:13;3.95;;;2.05;;
48881;SDS011;57063;51.406;-2.402;2022-08-02T03:45:44;5.28;;;2.10;;
48881;SDS011;57063;51.406;-2.402;2022-08-02T03:48:12;6.13;;;1.70;;
48881;SDS011;57063;51.406;-2.402;2022-08-02T03:50:38;7.03;;;1.98;;
48881;SDS011;57063;51.406;-2.402;2022-08-02T03:53:05;7.90;;;2.05;;
48881;SDS011;57063;51.406;-2.402;2022-08-02T03:55:31;7.47;;;1.73;;
48881;SDS011;57063;51.406;-2.402;2022-08-02T03:57:58;4.45;;;1.80;;
48881;SDS011;57063;51.406;-2.402;2022-08-02T04:00:24;2.85;;;1.55;;
48881;SDS011;57063;51.406;-2.402;2022-08-02T04:02:50;9.82;;;2.05;;
48881;SDS011;57063;51.406;-2.402;2022-08-02T04:05:16;6.78;;;1.70;;
48881;SDS011;57063;51.406;-2.402;2022-08-02T04:07:42;9.25;;;2.15;;
48881;SDS011;57063;51.406;-2.402;2022-08-02T04:10:08;11.10;;;2.20;;
48881;SDS011;57063;51.406;-2.402;2022-08-02T04:12:34;5.00;;;1.52;;
48881;SDS011;57063;51.406;-2.402;2022-08-02T04:15:02;5.47;;;2.13;;
48881;SDS011;57063;51.406;-2.402;2022-08-02T04:17:30;9.20;;;2.03;;
48881;SDS011;57063;51.406;-2.402;2022-08-02T04:20:19;10.65;;;1.88;;
48881;SDS011;57063;51.406;-2.402;2022-08-02T04:22:56;6.32;;;2.65;;
48881;SDS011;57063;51.406;-2.402;2022-08-02T04:25:24;8.65;;;2.20;;
48881;SDS011;57063;51.406;-2.402;2022-08-02T04:27:51;5.72;;;1.90;;
48881;SDS011;57063;51.406;-2.402;2022-08-02T04:30:17;5.38;;;1.75;;
48881;SDS011;57063;51.406;-2.402;2022-08-02T04:32:44;8.85;;;2.53;;
48881;SDS011;57063;51.406;-2.402;2022-08-02T04:35:10;7.55;;;2.08;;
48881;SDS011;57063;51.406;-2.402;2022-08-02T04:37:36;6.88;;;2.33;;
48881;SDS011;57063;51.406;-2.402;2022-08-02T04:40:03;5.38;;;1.48;;
48881;SDS011;57063;51.406;-2.402;2022-08-02T04:42:33;5.00;;;1.80;;
48881;SDS011;57063;51.406;-2.402;2022-08-02T04:44:58;3.67;;;1.75;;
48881;SDS011;57063;51.406;-2.402;2022-08-02T04:47:24;7.53;;;1.60;;
48881;SDS011;57063;51.406;-2.402;2022-08-02T04:49:49;7.63;;;2.00;;
48881;SDS011;57063;51.406;-2.402;2022-08-02T04:52:14;6.90;;;1.70;;
48881;SDS011;57063;51.406;-2.402;2022-08-02T04:54:40;8.40;;;1.80;;
48881;SDS011;57063;51.406;-2.402;2022-08-02T04:59:50;4.55;;;1.52;;
48881;SDS011;57063;51.406;-2.402;2022-08-02T05:28:53;8.52;;;2.05;;
48881;SDS011;57063;51.406;-2.402;2022-08-02T05:31:19;5.80;;;1.80;;
48881;SDS011;57063;51.406;-2.402;2022-08-02T05:33:44;8.18;;;1.23;;
48881;SDS011;57063;51.406;-2.402;2022-08-02T05:36:09;10.95;;;1.90;;
48881;SDS011;57063;51.406;-2.402;2022-08-02T05:38:35;4.45;;;1.55;;
48881;SDS011;57063;51.406;-2.402;2022-08-02T05:41:01;6.60;;;1.98;;
48881;SDS011;57063;51.406;-2.402;2022-08-02T05:43:26;3.22;;;1.73;;
48881;SDS011;57063;51.406;-2.402;2022-08-02T05:45:51;5.22;;;1.52;;
48881;SDS011;57063;51.406;-2.402;2022-08-02T05:48:17;4.88;;;1.63;;
48881;SDS011;57063;51.406;-2.402;2022-08-02T06:06:01;8.25;;;2.05;;
48881;SDS011;57063;51.406;-2.402;2022-08-02T06:42:57;5.90;;;1.40;;
48881;SDS011;57063;51.406;-2.402;2022-08-02T06:45:41;3.65;;;0.93;;
48881;SDS011;57063;51.406;-2.402;2022-08-02T06:48:08;2.50;;;0.75;;
48881;SDS011;57063;51.406;-2.402;2022-08-02T06:50:34;2.58;;;0.45;;
48881;SDS011;57063;51.406;-2.402;2022-08-02T06:53:02;1.80;;;0.73;;
48881;SDS011;57063;51.406;-2.402;2022-08-02T06:55:27;4.80;;;1.05;;
48881;SDS011;57063;51.406;-2.402;2022-08-02T06:57:56;7.13;;;0.70;;
48881;SDS011;57063;51.406;-2.402;2022-08-02T07:00:21;7.90;;;0.98;;
48881;SDS011;57063;51.406;-2.402;2022-08-02T07:02:47;3.63;;;0.52;;
48881;SDS011;57063;51.406;-2.402;2022-08-02T07:05:14;7.65;;;1.70;;
48881;SDS011;57063;51.406;-2.402;2022-08-02T07:07:39;5.10;;;0.80;;
48881;SDS011;57063;51.406;-2.402;2022-08-02T07:10:05;4.25;;;0.47;;
48881;SDS011;57063;51.406;-2.402;2022-08-02T07:12:31;2.85;;;0.43;;
48881;SDS011;57063;51.406;-2.402;2022-08-02T07:15:01;2.13;;;0.30;;
48881;SDS011;57063;51.406;-2.402;2022-08-02T07:17:29;1.75;;;0.32;;
48881;SDS011;57063;51.406;-2.402;2022-08-02T07:19:55;3.03;;;0.80;;
48881;SDS011;57063;51.406;-2.402;2022-08-02T07:22:22;3.17;;;0.68;;
48881;SDS011;57063;51.406;-2.402;2022-08-02T07:24:48;5.10;;;0.60;;
48881;SDS011;57063;51.406;-2.402;2022-08-02T07:27:14;1.50;;;0.70;;
48881;SDS011;57063;51.406;-2.402;2022-08-02T07:29:40;1.67;;;0.40;;
48881;SDS011;57063;51.406;-2.402;2022-08-02T07:32:05;1.90;;;0.50;;
48881;SDS011;57063;51.406;-2.402;2022-08-02T07:34:31;4.50;;;1.17;;
48881;SDS011;57063;51.406;-2.402;2022-08-02T07:36:56;7.43;;;0.40;;
48881;SDS011;57063;51.406;-2.402;2022-08-02T07:39:22;6.35;;;0.55;;
48881;SDS011;57063;51.406;-2.402;2022-08-02T07:53:57;5.75;;;0.52;;
48881;SDS011;57063;51.406;-2.402;2022-08-02T07:56:22;4.10;;;0.60;;
48881;SDS011;57063;51.406;-2.402;2022-08-02T07:58:48;2.85;;;0.40;;
48881;SDS011;57063;51.406;-2.402;2022-08-02T08:01:13;2.08;;;0.65;;
48881;SDS011;57063;51.406;-2.402;2022-08-02T08:03:38;1.13;;;0.50;;
48881;SDS011;57063;51.406;-2.402;2022-08-02T08:54:47;3.05;;;0.68;;
48881;SDS011;57063;51.406;-2.402;2022-08-02T09:31:38;3.50;;;0.65;;
48881;SDS011;57063;51.406;-2.402;2022-08-02T09:56:17;1.02;;;0.35;;
48881;SDS011;57063;51.406;-2.402;2022-08-02T09:58:43;4.13;;;0.45;;
48881;SDS011;57063;51.406;-2.402;2022-08-02T10:01:09;6.28;;;0.50;;
48881;SDS011;57063;51.406;-2.402;2022-08-02T10:35:22;2.00;;;0.30;;
48881;SDS011;57063;51.406;-2.402;2022-08-02T10:37:50;3.53;;;0.35;;
48881;SDS011;57063;51.406;-2.402;2022-08-02T10:40:18;3.25;;;0.30;;
48881;SDS011;57063;51.406;-2.402;2022-08-02T10:42:50;3.90;;;0.50;;
48881;SDS011;57063;51.406;-2.402;2022-08-02T10:45:18;6.97;;;0.38;;
48881;SDS011;57063;51.406;-2.402;2022-08-02T10:55:43;2.28;;;0.50;;
48881;SDS011;57063;51.406;-2.402;2022-08-02T10:58:19;2.97;;;0.30;;
48881;SDS011;57063;51.406;-2.402;2022-08-02T11:00:46;4.35;;;0.57;;
48881;SDS011;57063;51.406;-2.402;2022-08-02T11:08:30;4.95;;;0.52;;
48881;SDS011;57063;51.406;-2.402;2022-08-02T11:11:00;4.30;;;0.50;;
48881;SDS011;57063;51.406;-2.402;2022-08-02T11:19:20;3.70;;;0.47;;
48881;SDS011;57063;51.406;-2.402;2022-08-02T11:22:05;1.23;;;0.22;;
48881;SDS011;57063;51.406;-2.402;2022-08-02T11:24:40;3.13;;;0.43;;
48881;SDS011;57063;51.406;-2.402;2022-08-02T11:27:06;4.82;;;0.50;;
48881;SDS011;57063;51.406;-2.402;2022-08-02T11:29:33;4.78;;;0.95;;
48881;SDS011;57063;51.406;-2.402;2022-08-02T11:32:00;1.40;;;0.45;;
48881;SDS011;57063;51.406;-2.402;2022-08-02T11:34:25;4.28;;;0.32;;
48881;SDS011;57063;51.406;-2.402;2022-08-02T11:36:52;3.47;;;0.70;;
48881;SDS011;57063;51.406;-2.402;2022-08-02T11:39:22;2.65;;;0.60;;
48881;SDS011;57063;51.406;-2.402;2022-08-02T11:41:48;3.63;;;1.00;;
48881;SDS011;57063;51.406;-2.402;2022-08-02T12:29:04;8.50;;;1.90;;
48881;SDS011;57063;51.406;-2.402;2022-08-02T12:31:40;15.45;;;2.78;;
48881;SDS011;57063;51.406;-2.402;2022-08-02T12:34:13;13.55;;;2.40;;
48881;SDS011;57063;51.406;-2.402;2022-08-02T12:36:42;16.70;;;2.70;;
48881;SDS011;57063;51.406;-2.402;2022-08-02T12:39:12;14.23;;;2.60;;
48881;SDS011;57063;51.406;-2.402;2022-08-02T12:41:38;15.45;;;2.72;;
48881;SDS011;57063;51.406;-2.402;2022-08-02T12:44:06;14.65;;;3.30;;
48881;SDS011;57063;51.406;-2.402;2022-08-02T12:46:40;15.30;;;2.92;;
48881;SDS011;57063;51.406;-2.402;2022-08-02T12:49:15;14.45;;;2.40;;
48881;SDS011;57063;51.406;-2.402;2022-08-02T12:51:42;12.88;;;2.85;;
48881;SDS011;57063;51.406;-2.402;2022-08-02T12:54:14;18.52;;;2.97;;
48881;SDS011;57063;51.406;-2.402;2022-08-02T12:56:47;12.35;;;2.30;;
48881;SDS011;57063;51.406;-2.402;2022-08-02T12:59:14;12.15;;;2.53;;
48881;SDS011;57063;51.406;-2.402;2022-08-02T13:01:39;14.77;;;3.33;;
48881;SDS011;57063;51.406;-2.402;2022-08-02T13:04:05;14.07;;;2.45;;
48881;SDS011;57063;51.406;-2.402;2022-08-02T13:08:56;10.75;;;2.30;;
48881;SDS011;57063;51.406;-2.402;2022-08-02T13:11:25;14.30;;;3.00;;
48881;SDS011;57063;51.406;-2.402;2022-08-02T13:45:44;16.63;;;3.77;;
48881;SDS011;57063;51.406;-2.402;2022-08-02T13:48:10;15.18;;;3.00;;
48881;SDS011;57063;51.406;-2.402;2022-08-02T13:50:35;19.05;;;2.97;;
48881;SDS011;57063;51.406;-2.402;2022-08-02T13:53:00;16.98;;;2.53;;
48881;SDS011;57063;51.406;-2.402;2022-08-02T13:55:26;16.98;;;3.05;;
48881;SDS011;57063;51.406;-2.402;2022-08-02T13:57:51;19.08;;;2.60;;
48881;SDS011;57063;51.406;-2.402;2022-08-02T14:00:17;13.85;;;3.03;;
48881;SDS011;57063;51.406;-2.402;2022-08-02T14:02:42;18.25;;;3.40;;
48881;SDS011;57063;51.406;-2.402;2022-08-02T14:05:08;15.48;;;2.67;;
48881;SDS011;57063;51.406;-2.402;2022-08-02T14:07:33;22.88;;;3.45;;
48881;SDS011;57063;51.406;-2.402;2022-08-02T14:09:58;17.08;;;3.00;;
48881;SDS011;57063;51.406;-2.402;2022-08-02T14:12:24;16.05;;;2.58;;
48881;SDS011;57063;51.406;-2.402;2022-08-02T14:14:49;12.27;;;3.40;;
48881;SDS011;57063;51.406;-2.402;2022-08-02T14:17:14;23.88;;;3.15;;
48881;SDS011;57063;51.406;-2.402;2022-08-02T14:19:42;15.95;;;2.75;;
48881;SDS011;57063;51.406;-2.402;2022-08-02T14:22:08;22.52;;;2.70;;
48881;SDS011;57063;51.406;-2.402;2022-08-02T14:24:33;16.08;;;3.35;;
48881;SDS011;57063;51.406;-2.402;2022-08-02T14:26:58;16.00;;;2.85;;
48881;SDS011;57063;51.406;-2.402;2022-08-02T14:29:25;22.20;;;3.78;;
48881;SDS011;57063;51.406;-2.402;2022-08-02T14:31:50;18.05;;;3.50;;
48881;SDS011;57063;51.406;-2.402;2022-08-02T14:34:16;19.00;;;3.20;;
48881;SDS011;57063;51.406;-2.402;2022-08-02T14:36:41;20.67;;;3.65;;
48881;SDS011;57063;51.406;-2.402;2022-08-02T14:39:06;21.23;;;5.50;;
48881;SDS011;57063;51.406;-2.402;2022-08-02T14:41:32;21.67;;;3.55;;
48881;SDS011;57063;51.406;-2.402;2022-08-02T14:44:00;22.80;;;3.58;;
48881;SDS011;57063;51.406;-2.402;2022-08-02T14:46:29;30.20;;;4.30;;
48881;SDS011;57063;51.406;-2.402;2022-08-02T14:48:59;18.45;;;3.42;;
48881;SDS011;57063;51.406;-2.402;2022-08-02T14:51:26;20.15;;;3.47;;
48881;SDS011;57063;51.406;-2.402;2022-08-02T14:56:18;17.70;;;3.23;;
48881;SDS011;57063;51.406;-2.402;2022-08-02T14:58:43;19.38;;;3.97;;
48881;SDS011;57063;51.406;-2.402;2022-08-02T15:01:08;10.73;;;2.38;;
48881;SDS011;57063;51.406;-2.402;2022-08-02T15:03:34;17.83;;;3.95;;
48881;SDS011;57063;51.406;-2.402;2022-08-02T15:05:59;14.30;;;3.28;;
48881;SDS011;57063;51.406;-2.402;2022-08-02T15:08:25;13.07;;;2.72;;
48881;SDS011;57063;51.406;-2.402;2022-08-02T15:10:50;22.58;;;2.75;;
48881;SDS011;57063;51.406;-2.402;2022-08-02T15:13:16;24.63;;;3.50;;
48881;SDS011;57063;51.406;-2.402;2022-08-02T15:15:41;21.40;;;3.30;;
48881;SDS011;57063;51.406;-2.402;2022-08-02T15:18:06;17.65;;;3.63;;
48881;SDS011;57063;51.406;-2.402;2022-08-02T15:20:32;18.25;;;3.50;;
48881;SDS011;57063;51.406;-2.402;2022-08-02T15:22:57;14.57;;;2.55;;
48881;SDS011;57063;51.406;-2.402;2022-08-02T15:25:22;13.95;;;2.53;;
48881;SDS011;57063;51.406;-2.402;2022-08-02T15:27:48;17.15;;;2.65;;
48881;SDS011;57063;51.406;-2.402;2022-08-02T15:30:13;21.60;;;2.45;;
48881;SDS011;57063;51.406;-2.402;2022-08-02T15:47:12;21.73;;;2.83;;
48881;SDS011;57063;51.406;-2.402;2022-08-02T15:49:38;16.60;;;3.10;;
48881;SDS011;57063;51.406;-2.402;2022-08-02T15:52:03;14.57;;;2.97;;
48881;SDS011;57063;51.406;-2.402;2022-08-02T15:54:29;17.45;;;2.70;;
48881;SDS011;57063;51.406;-2.402;2022-08-02T15:56:54;18.25;;;2.67;;
48881;SDS011;57063;51.406;-2.402;2022-08-02T15:59:19;24.92;;;3.38;;
48881;SDS011;57063;51.406;-2.402;2022-08-02T16:28:25;17.07;;;2.97;;
48881;SDS011;57063;51.406;-2.402;2022-08-02T16:30:50;16.88;;;3.05;;
48881;SDS011;57063;51.406;-2.402;2022-08-02T16:33:16;12.27;;;2.08;;
48881;SDS011;57063;51.406;-2.402;2022-08-02T16:35:41;13.20;;;3.33;;
48881;SDS011;57063;51.406;-2.402;2022-08-02T16:38:07;19.67;;;3.53;;
48881;SDS011;57063;51.406;-2.402;2022-08-02T16:40:32;19.60;;;3.65;;
48881;SDS011;57063;51.406;-2.402;2022-08-02T16:42:58;12.13;;;3.15;;
48881;SDS011;57063;51.406;-2.402;2022-08-02T16:45:24;16.77;;;2.65;;
48881;SDS011;57063;51.406;-2.402;2022-08-02T16:47:50;10.30;;;2.10;;
48881;SDS011;57063;51.406;-2.402;2022-08-02T17:09:41;11.97;;;3.07;;
48881;SDS011;57063;51.406;-2.402;2022-08-02T17:12:06;17.23;;;2.75;;
48881;SDS011;57063;51.406;-2.402;2022-08-02T17:14:32;19.90;;;3.30;;
48881;SDS011;57063;51.406;-2.402;2022-08-02T17:17:00;12.18;;;2.03;;
48881;SDS011;57063;51.406;-2.402;2022-08-02T17:19:26;15.73;;;2.42;;
48881;SDS011;57063;51.406;-2.402;2022-08-02T17:21:51;15.73;;;2.75;;
48881;SDS011;57063;51.406;-2.402;2022-08-02T17:24:16;15.05;;;2.00;;
48881;SDS011;57063;51.406;-2.402;2022-08-02T17:26:42;11.13;;;2.28;;
48881;SDS011;57063;51.406;-2.402;2022-08-02T17:29:07;10.70;;;2.72;;
48881;SDS011;57063;51.406;-2.402;2022-08-02T17:31:33;14.73;;;3.40;;
48881;SDS011;57063;51.406;-2.402;2022-08-02T17:33:58;16.98;;;2.03;;
48881;SDS011;57063;51.406;-2.402;2022-08-02T17:36:23;15.25;;;2.65;;
48881;SDS011;57063;51.406;-2.402;2022-08-02T17:38:49;12.60;;;2.13;;
48881;SDS011;57063;51.406;-2.402;2022-08-02T17:41:14;12.23;;;1.85;;
48881;SDS011;57063;51.406;-2.402;2022-08-02T17:43:39;14.65;;;2.05;;
48881;SDS011;57063;51.406;-2.402;2022-08-02T17:46:05;13.43;;;1.70;;
48881;SDS011;57063;51.406;-2.402;2022-08-02T17:48:30;12.07;;;2.65;;
48881;SDS011;57063;51.406;-2.402;2022-08-02T17:51:14;19.27;;;2.00;;
48881;SDS011;57063;51.406;-2.402;2022-08-02T17:53:39;12.70;;;1.67;;
48881;SDS011;57063;51.406;-2.402;2022-08-02T17:56:05;6.03;;;1.60;;
48881;SDS011;57063;51.406;-2.402;2022-08-02T17:58:30;12.63;;;1.75;;
48881;SDS011;57063;51.406;-2.402;2022-08-02T18:00:56;14.13;;;2.30;;
48881;SDS011;57063;51.406;-2.402;2022-08-02T18:03:21;11.70;;;1.33;;
48881;SDS011;57063;51.406;-2.402;2022-08-02T18:05:46;9.45;;;1.58;;
48881;SDS011;57063;51.406;-2.402;2022-08-02T18:08:12;9.68;;;1.77;;
48881;SDS011;57063;51.406;-2.402;2022-08-02T18:10:38;6.43;;;1.63;;
48881;SDS011;57063;51.406;-2.402;2022-08-02T18:13:04;15.43;;;2.17;;
48881;SDS011;57063;51.406;-2.402;2022-08-02T18:15:29;9.48;;;1.52;;
48881;SDS011;57063;51.406;-2.402;2022-08-02T18:17:55;5.18;;;1.30;;
48881;SDS011;57063;51.406;-2.402;2022-08-02T18:20:20;6.63;;;1.35;;
48881;SDS011;57063;51.406;-2.402;2022-08-02T18:22:45;8.38;;;1.80;;
48881;SDS011;57063;51.406;-2.402;2022-08-02T18:25:11;10.38;;;1.65;;
48881;SDS011;57063;51.406;-2.402;2022-08-02T18:27:36;10.60;;;1.42;;
48881;SDS011;57063;51.406;-2.402;2022-08-02T18:30:01;8.68;;;1.33;;
48881;SDS011;57063;51.406;-2.402;2022-08-02T18:32:27;5.25;;;1.30;;
48881;SDS011;57063;51.406;-2.402;2022-08-02T18:34:53;5.18;;;0.98;;
48881;SDS011;57063;51.406;-2.402;2022-08-02T18:37:18;15.57;;;2.00;;
48881;SDS011;57063;51.406;-2.402;2022-08-02T18:39:43;5.38;;;1.42;;
48881;SDS011;57063;51.406;-2.402;2022-08-02T18:42:09;10.43;;;1.52;;
48881;SDS011;57063;51.406;-2.402;2022-08-02T18:44:34;12.43;;;1.83;;
48881;SDS011;57063;51.406;-2.402;2022-08-02T18:46:59;8.75;;;1.58;;
48881;SDS011;57063;51.406;-2.402;2022-08-02T18:49:25;8.48;;;1.20;;
48881;SDS011;57063;51.406;-2.402;2022-08-02T18:51:52;8.90;;;1.27;;
48881;SDS011;57063;51.406;-2.402;2022-08-02T18:54:17;6.22;;;1.48;;
48881;SDS011;57063;51.406;-2.402;2022-08-02T18:56:43;6.20;;;1.08;;
48881;SDS011;57063;51.406;-2.402;2022-08-02T18:59:09;7.80;;;1.50;;
48881;SDS011;57063;51.406;-2.402;2022-08-02T19:04:01;11.20;;;1.52;;
48881;SDS011;57063;51.406;-2.402;2022-08-02T19:08:53;15.30;;;2.08;;
48881;SDS011;57063;51.406;-2.402;2022-08-02T19:11:18;6.97;;;1.48;;
48881;SDS011;57063;51.406;-2.402;2022-08-02T19:13:44;7.25;;;1.55;;
48881;SDS011;57063;51.406;-2.402;2022-08-02T19:16:09;11.75;;;1.48;;
48881;SDS011;57063;51.406;-2.402;2022-08-02T19:18:36;6.28;;;0.98;;
48881;SDS011;57063;51.406;-2.402;2022-08-02T19:21:02;5.13;;;1.20;;
48881;SDS011;57063;51.406;-2.402;2022-08-02T19:23:27;8.43;;;1.10;;
48881;SDS011;57063;51.406;-2.402;2022-08-02T19:25:54;7.85;;;1.88;;
48881;SDS011;57063;51.406;-2.402;2022-08-02T19:28:19;5.43;;;1.63;;
48881;SDS011;57063;51.406;-2.402;2022-08-02T19:30:45;5.13;;;1.02;;
48881;SDS011;57063;51.406;-2.402;2022-08-02T19:33:12;5.40;;;1.58;;
48881;SDS011;57063;51.406;-2.402;2022-08-02T19:35:37;7.57;;;1.25;;
48881;SDS011;57063;51.406;-2.402;2022-08-02T19:38:09;6.07;;;1.50;;
48881;SDS011;57063;51.406;-2.402;2022-08-02T19:40:35;6.68;;;1.58;;
48881;SDS011;57063;51.406;-2.402;2022-08-02T19:43:02;6.05;;;1.52;;
48881;SDS011;57063;51.406;-2.402;2022-08-02T19:45:28;5.65;;;1.38;;
48881;SDS011;57063;51.406;-2.402;2022-08-02T19:47:53;11.85;;;2.15;;
48881;SDS011;57063;51.406;-2.402;2022-08-02T19:50:19;6.05;;;1.90;;
48881;SDS011;57063;51.406;-2.402;2022-08-02T19:52:45;8.65;;;1.77;;
48881;SDS011;57063;51.406;-2.402;2022-08-02T19:55:11;12.82;;;2.63;;
48881;SDS011;57063;51.406;-2.402;2022-08-02T19:57:37;6.40;;;1.83;;
48881;SDS011;57063;51.406;-2.402;2022-08-02T20:00:04;5.85;;;1.75;;
48881;SDS011;57063;51.406;-2.402;2022-08-02T20:02:31;13.05;;;3.45;;
48881;SDS011;57063;51.406;-2.402;2022-08-02T20:04:56;7.38;;;1.63;;
48881;SDS011;57063;51.406;-2.402;2022-08-02T20:07:22;6.40;;;1.48;;
48881;SDS011;57063;51.406;-2.402;2022-08-02T20:09:47;15.50;;;2.20;;
48881;SDS011;57063;51.406;-2.402;2022-08-02T20:12:13;9.43;;;1.60;;
48881;SDS011;57063;51.406;-2.402;2022-08-02T20:14:38;5.63;;;2.50;;
48881;SDS011;57063;51.406;-2.402;2022-08-02T20:17:04;19.40;;;2.90;;
48881;SDS011;57063;51.406;-2.402;2022-08-02T20:19:35;6.65;;;1.65;;
48881;SDS011;57063;51.406;-2.402;2022-08-02T20:22:01;8.18;;;1.77;;
48881;SDS011;57063;51.406;-2.402;2022-08-02T20:24:26;8.32;;;2.08;;
48881;SDS011;57063;51.406;-2.402;2022-08-02T20:26:53;9.38;;;2.10;;
48881;SDS011;57063;51.406;-2.402;2022-08-02T20:29:18;9.98;;;1.70;;
48881;SDS011;57063;51.406;-2.402;2022-08-02T20:31:44;14.43;;;2.40;;
48881;SDS011;57063;51.406;-2.402;2022-08-02T20:34:09;9.48;;;2.20;;
48881;SDS011;57063;51.406;-2.402;2022-08-02T20:36:34;10.98;;;2.40;;
48881;SDS011;57063;51.406;-2.402;2022-08-02T20:39:00;8.10;;;1.83;;
48881;SDS011;57063;51.406;-2.402;2022-08-02T20:41:25;9.25;;;2.38;;
48881;SDS011;57063;51.406;-2.402;2022-08-02T20:43:51;10.15;;;3.03;;
48881;SDS011;57063;51.406;-2.402;2022-08-02T20:46:16;10.15;;;2.42;;
48881;SDS011;57063;51.406;-2.402;2022-08-02T20:48:41;7.20;;;1.88;;
48881;SDS011;57063;51.406;-2.402;2022-08-02T20:51:07;9.73;;;2.45;;
48881;SDS011;57063;51.406;-2.402;2022-08-02T20:53:32;7.32;;;1.90;;
48881;SDS011;57063;51.406;-2.402;2022-08-02T20:55:57;11.18;;;2.10;;
48881;SDS011;57063;51.406;-2.402;2022-08-02T20:58:23;12.82;;;1.98;;
48881;SDS011;57063;51.406;-2.402;2022-08-02T21:00:49;10.80;;;1.83;;
48881;SDS011;57063;51.406;-2.402;2022-08-02T21:03:16;9.18;;;2.35;;
48881;SDS011;57063;51.406;-2.402;2022-08-02T21:05:43;7.78;;;1.60;;
48881;SDS011;57063;51.406;-2.402;2022-08-02T21:08:09;8.35;;;2.40;;